sensor_id;sensor_type;location;lat;lon;timestamp;P1;durP1;ratioP1;P2;durP2;ratioP2
32838;SDS011;19182;41.820;12.808;2022-11-20T00:00:11;12.00;;;4.07;;
32838;SDS011;19182;41.820;12.808;2022-11-20T00:02:38;9.25;;;4.28;;
32838;SDS011;19182;41.820;12.808;2022-11-20T00:05:03;6.28;;;3.72;;
32838;SDS011;19182;41.820;12.808;2022-11-20T00:07:30;7.03;;;3.95;;
32838;SDS011;19182;41.820;12.808;2022-11-20T00:09:56;7.53;;;4.60;;
32838;SDS011;19182;41.820;12.808;2022-11-20T00:12:21;7.38;;;4.82;;
32838;SDS011;19182;41.820;12.808;2022-11-20T00:14:48;13.68;;;5.35;;
32838;SDS011;19182;41.820;12.808;2022-11-20T00:17:14;11.25;;;5.60;;
32838;SDS011;19182;41.820;12.808;2022-11-20T00:19:40;6.20;;;4.85;;
32838;SDS011;19182;41.820;12.808;2022-11-20T00:22:05;13.25;;;7.00;;
32838;SDS011;19182;41.820;12.808;2022-11-20T00:24:31;8.68;;;3.95;;
32838;SDS011;19182;41.820;12.808;2022-11-20T00:26:56;7.88;;;4.60;;
32838;SDS011;19182;41.820;12.808;2022-11-20T00:29:22;9.80;;;4.03;;
32838;SDS011;19182;41.820;12.808;2022-11-20T00:31:49;10.20;;;4.05;;
32838;SDS011;19182;41.820;12.808;2022-11-20T00:34:16;13.65;;;2.92;;
32838;SDS011;19182;41.820;12.808;2022-11-20T00:36:42;21.23;;;4.63;;
32838;SDS011;19182;41.820;12.808;2022-11-20T00:39:08;14.50;;;6.07;;
32838;SDS011;19182;41.820;12.808;2022-11-20T00:41:34;5.80;;;3.50;;
32838;SDS011;19182;41.820;12.808;2022-11-20T00:44:00;7.05;;;3.42;;
32838;SDS011;19182;41.820;12.808;2022-11-20T00:46:27;5.00;;;2.95;;
32838;SDS011;19182;41.820;12.808;2022-11-20T00:48:53;7.10;;;4.20;;
32838;SDS011;19182;41.820;12.808;2022-11-20T00:51:20;5.47;;;2.90;;
32838;SDS011;19182;41.820;12.808;2022-11-20T00:53:47;11.88;;;3.33;;
32838;SDS011;19182;41.820;12.808;2022-11-20T00:56:15;9.20;;;2.90;;
32838;SDS011;19182;41.820;12.808;2022-11-20T00:58:45;5.38;;;2.70;;
32838;SDS011;19182;41.820;12.808;2022-11-20T01:01:14;5.72;;;2.75;;
32838;SDS011;19182;41.820;12.808;2022-11-20T01:03:46;6.65;;;3.15;;
32838;SDS011;19182;41.820;12.808;2022-11-20T01:06:17;9.68;;;3.08;;
32838;SDS011;19182;41.820;12.808;2022-11-20T01:08:45;9.55;;;4.00;;
32838;SDS011;19182;41.820;12.808;2022-11-20T01:11:13;6.85;;;3.00;;
32838;SDS011;19182;41.820;12.808;2022-11-20T01:13:40;9.75;;;3.58;;
32838;SDS011;19182;41.820;12.808;2022-11-20T01:16:11;10.68;;;3.03;;
32838;SDS011;19182;41.820;12.808;2022-11-20T01:18:44;6.75;;;3.08;;
32838;SDS011;19182;41.820;12.808;2022-11-20T01:21:12;4.70;;;3.13;;
32838;SDS011;19182;41.820;12.808;2022-11-20T01:23:41;14.35;;;4.28;;
32838;SDS011;19182;41.820;12.808;2022-11-20T01:26:10;9.10;;;4.65;;
32838;SDS011;19182;41.820;12.808;2022-11-20T01:28:37;9.00;;;4.38;;
32838;SDS011;19182;41.820;12.808;2022-11-20T01:31:18;13.43;;;6.18;;
32838;SDS011;19182;41.820;12.808;2022-11-20T01:33:49;10.63;;;5.00;;
32838;SDS011;19182;41.820;12.808;2022-11-20T01:36:17;22.73;;;16.23;;
32838;SDS011;19182;41.820;12.808;2022-11-20T01:38:44;17.67;;;14.02;;
32838;SDS011;19182;41.820;12.808;2022-11-20T01:41:12;13.82;;;5.70;;
32838;SDS011;19182;41.820;12.808;2022-11-20T01:43:58;17.58;;;14.07;;
32838;SDS011;19182;41.820;12.808;2022-11-20T01:46:24;16.60;;;10.52;;
32838;SDS011;19182;41.820;12.808;2022-11-20T01:48:54;11.15;;;7.70;;
32838;SDS011;19182;41.820;12.808;2022-11-20T01:51:35;14.05;;;7.50;;
32838;SDS011;19182;41.820;12.808;2022-11-20T01:54:08;12.30;;;5.60;;
32838;SDS011;19182;41.820;12.808;2022-11-20T01:56:41;12.57;;;5.60;;
32838;SDS011;19182;41.820;12.808;2022-11-20T01:59:09;8.80;;;4.85;;
32838;SDS011;19182;41.820;12.808;2022-11-20T02:04:13;10.13;;;5.07;;
32838;SDS011;19182;41.820;12.808;2022-11-20T02:06:47;8.35;;;4.97;;
32838;SDS011;19182;41.820;12.808;2022-11-20T02:09:16;7.40;;;3.70;;
32838;SDS011;19182;41.820;12.808;2022-11-20T02:11:42;11.95;;;3.95;;
32838;SDS011;19182;41.820;12.808;2022-11-20T02:14:08;11.75;;;3.90;;
32838;SDS011;19182;41.820;12.808;2022-11-20T02:16:39;7.07;;;2.90;;
32838;SDS011;19182;41.820;12.808;2022-11-20T02:19:13;8.85;;;3.58;;
32838;SDS011;19182;41.820;12.808;2022-11-20T02:24:49;3.33;;;2.45;;
32838;SDS011;19182;41.820;12.808;2022-11-20T02:27:16;10.20;;;2.75;;
32838;SDS011;19182;41.820;12.808;2022-11-20T02:29:59;18.58;;;4.82;;
32838;SDS011;19182;41.820;12.808;2022-11-20T02:32:31;5.72;;;3.17;;
32838;SDS011;19182;41.820;12.808;2022-11-20T02:35:06;7.30;;;2.85;;
32838;SDS011;19182;41.820;12.808;2022-11-20T02:37:53;6.00;;;2.67;;
32838;SDS011;19182;41.820;12.808;2022-11-20T02:40:20;10.25;;;2.67;;
32838;SDS011;19182;41.820;12.808;2022-11-20T02:42:46;8.52;;;3.25;;
32838;SDS011;19182;41.820;12.808;2022-11-20T02:45:13;6.43;;;3.28;;
32838;SDS011;19182;41.820;12.808;2022-11-20T02:47:39;8.48;;;3.20;;
32838;SDS011;19182;41.820;12.808;2022-11-20T02:50:05;9.60;;;3.05;;
32838;SDS011;19182;41.820;12.808;2022-11-20T02:52:31;6.18;;;2.75;;
32838;SDS011;19182;41.820;12.808;2022-11-20T02:54:58;5.28;;;3.03;;
32838;SDS011;19182;41.820;12.808;2022-11-20T02:57:24;8.25;;;3.28;;
32838;SDS011;19182;41.820;12.808;2022-11-20T02:59:50;9.05;;;3.08;;
32838;SDS011;19182;41.820;12.808;2022-11-20T03:02:15;6.75;;;3.40;;
32838;SDS011;19182;41.820;12.808;2022-11-20T03:04:41;6.85;;;3.80;;
32838;SDS011;19182;41.820;12.808;2022-11-20T03:07:07;9.00;;;3.03;;
32838;SDS011;19182;41.820;12.808;2022-11-20T03:09:33;7.97;;;3.40;;
32838;SDS011;19182;41.820;12.808;2022-11-20T03:11:59;10.27;;;2.97;;
32838;SDS011;19182;41.820;12.808;2022-11-20T03:14:25;8.65;;;3.30;;
32838;SDS011;19182;41.820;12.808;2022-11-20T03:16:50;8.38;;;3.03;;
32838;SDS011;19182;41.820;12.808;2022-11-20T03:19:17;8.50;;;3.28;;
32838;SDS011;19182;41.820;12.808;2022-11-20T03:21:43;8.25;;;3.40;;
32838;SDS011;19182;41.820;12.808;2022-11-20T03:24:09;9.32;;;3.30;;
32838;SDS011;19182;41.820;12.808;2022-11-20T03:26:35;5.60;;;2.97;;
32838;SDS011;19182;41.820;12.808;2022-11-20T03:29:02;7.47;;;2.90;;
32838;SDS011;19182;41.820;12.808;2022-11-20T03:31:36;5.55;;;3.08;;
32838;SDS011;19182;41.820;12.808;2022-11-20T03:34:08;6.85;;;2.92;;
32838;SDS011;19182;41.820;12.808;2022-11-20T03:36:37;13.20;;;3.50;;
32838;SDS011;19182;41.820;12.808;2022-11-20T03:39:04;6.35;;;2.78;;
32838;SDS011;19182;41.820;12.808;2022-11-20T03:41:31;3.65;;;2.40;;
32838;SDS011;19182;41.820;12.808;2022-11-20T03:44:01;7.85;;;2.22;;
32838;SDS011;19182;41.820;12.808;2022-11-20T03:46:29;8.30;;;2.08;;
32838;SDS011;19182;41.820;12.808;2022-11-20T03:48:55;7.72;;;2.72;;
32838;SDS011;19182;41.820;12.808;2022-11-20T03:51:21;4.03;;;1.92;;
32838;SDS011;19182;41.820;12.808;2022-11-20T03:53:52;4.32;;;2.30;;
32838;SDS011;19182;41.820;12.808;2022-11-20T03:56:28;8.38;;;2.35;;
32838;SDS011;19182;41.820;12.808;2022-11-20T03:58:59;4.90;;;2.30;;
32838;SDS011;19182;41.820;12.808;2022-11-20T04:01:29;9.52;;;2.30;;
32838;SDS011;19182;41.820;12.808;2022-11-20T04:03:57;7.03;;;2.17;;
32838;SDS011;19182;41.820;12.808;2022-11-20T04:06:24;3.95;;;2.63;;
32838;SDS011;19182;41.820;12.808;2022-11-20T04:08:55;6.07;;;2.13;;
32838;SDS011;19182;41.820;12.808;2022-11-20T04:11:27;5.30;;;2.20;;
32838;SDS011;19182;41.820;12.808;2022-11-20T04:13:55;5.50;;;2.90;;
32838;SDS011;19182;41.820;12.808;2022-11-20T04:16:23;5.43;;;3.20;;
32838;SDS011;19182;41.820;12.808;2022-11-20T04:18:53;11.73;;;3.80;;
32838;SDS011;19182;41.820;12.808;2022-11-20T04:21:20;10.57;;;4.97;;
32838;SDS011;19182;41.820;12.808;2022-11-20T04:23:49;11.38;;;4.68;;
32838;SDS011;19182;41.820;12.808;2022-11-20T04:26:17;9.82;;;5.20;;
32838;SDS011;19182;41.820;12.808;2022-11-20T04:28:42;17.98;;;5.53;;
32838;SDS011;19182;41.820;12.808;2022-11-20T04:31:12;7.28;;;5.35;;
32838;SDS011;19182;41.820;12.808;2022-11-20T04:33:39;12.27;;;5.85;;
32838;SDS011;19182;41.820;12.808;2022-11-20T04:36:07;12.57;;;6.35;;
32838;SDS011;19182;41.820;12.808;2022-11-20T04:38:36;12.20;;;6.10;;
32838;SDS011;19182;41.820;12.808;2022-11-20T04:41:03;17.77;;;6.43;;
32838;SDS011;19182;41.820;12.808;2022-11-20T04:43:30;11.45;;;6.20;;
32838;SDS011;19182;41.820;12.808;2022-11-20T04:45:56;17.15;;;7.35;;
32838;SDS011;19182;41.820;12.808;2022-11-20T04:48:23;15.90;;;6.80;;
32838;SDS011;19182;41.820;12.808;2022-11-20T04:50:50;12.82;;;6.95;;
32838;SDS011;19182;41.820;12.808;2022-11-20T04:53:17;16.00;;;8.15;;
32838;SDS011;19182;41.820;12.808;2022-11-20T04:55:43;15.88;;;8.38;;
32838;SDS011;19182;41.820;12.808;2022-11-20T04:58:09;14.88;;;8.23;;
32838;SDS011;19182;41.820;12.808;2022-11-20T05:00:35;15.50;;;8.32;;
32838;SDS011;19182;41.820;12.808;2022-11-20T05:03:00;16.70;;;8.43;;
32838;SDS011;19182;41.820;12.808;2022-11-20T05:05:27;15.50;;;9.15;;
32838;SDS011;19182;41.820;12.808;2022-11-20T05:07:53;15.68;;;9.07;;
32838;SDS011;19182;41.820;12.808;2022-11-20T05:10:21;15.63;;;9.13;;
32838;SDS011;19182;41.820;12.808;2022-11-20T05:12:48;16.13;;;8.70;;
32838;SDS011;19182;41.820;12.808;2022-11-20T05:15:14;17.05;;;9.98;;
32838;SDS011;19182;41.820;12.808;2022-11-20T05:17:39;16.90;;;8.60;;
32838;SDS011;19182;41.820;12.808;2022-11-20T05:20:05;19.23;;;9.00;;
32838;SDS011;19182;41.820;12.808;2022-11-20T05:22:34;12.65;;;8.10;;
32838;SDS011;19182;41.820;12.808;2022-11-20T05:25:03;16.20;;;8.45;;
32838;SDS011;19182;41.820;12.808;2022-11-20T05:27:29;16.02;;;9.15;;
32838;SDS011;19182;41.820;12.808;2022-11-20T05:29:55;18.85;;;9.60;;
32838;SDS011;19182;41.820;12.808;2022-11-20T05:32:21;23.30;;;10.95;;
32838;SDS011;19182;41.820;12.808;2022-11-20T05:34:50;22.93;;;10.67;;
32838;SDS011;19182;41.820;12.808;2022-11-20T05:37:18;23.02;;;12.02;;
32838;SDS011;19182;41.820;12.808;2022-11-20T05:39:44;21.52;;;11.60;;
32838;SDS011;19182;41.820;12.808;2022-11-20T05:42:10;22.95;;;12.13;;
32838;SDS011;19182;41.820;12.808;2022-11-20T05:44:54;19.15;;;12.40;;
32838;SDS011;19182;41.820;12.808;2022-11-20T05:47:20;27.95;;;11.90;;
32838;SDS011;19182;41.820;12.808;2022-11-20T05:49:46;22.30;;;13.07;;
32838;SDS011;19182;41.820;12.808;2022-11-20T05:52:12;22.48;;;12.60;;
32838;SDS011;19182;41.820;12.808;2022-11-20T05:54:38;23.50;;;12.32;;
32838;SDS011;19182;41.820;12.808;2022-11-20T05:57:04;20.23;;;11.35;;
32838;SDS011;19182;41.820;12.808;2022-11-20T05:59:30;23.55;;;11.50;;
32838;SDS011;19182;41.820;12.808;2022-11-20T06:01:55;22.58;;;12.68;;
32838;SDS011;19182;41.820;12.808;2022-11-20T06:04:21;19.05;;;11.82;;
32838;SDS011;19182;41.820;12.808;2022-11-20T06:06:47;21.23;;;11.85;;
32838;SDS011;19182;41.820;12.808;2022-11-20T06:09:12;24.38;;;11.75;;
32838;SDS011;19182;41.820;12.808;2022-11-20T06:11:41;17.90;;;9.95;;
32838;SDS011;19182;41.820;12.808;2022-11-20T06:14:07;18.98;;;10.80;;
32838;SDS011;19182;41.820;12.808;2022-11-20T06:16:33;19.90;;;10.35;;
32838;SDS011;19182;41.820;12.808;2022-11-20T06:18:59;21.23;;;10.80;;
32838;SDS011;19182;41.820;12.808;2022-11-20T06:21:25;20.05;;;10.85;;
32838;SDS011;19182;41.820;12.808;2022-11-20T06:23:51;17.52;;;10.52;;
32838;SDS011;19182;41.820;12.808;2022-11-20T06:26:20;22.13;;;11.65;;
32838;SDS011;19182;41.820;12.808;2022-11-20T06:28:50;18.38;;;9.95;;
32838;SDS011;19182;41.820;12.808;2022-11-20T06:31:19;19.25;;;8.90;;
32838;SDS011;19182;41.820;12.808;2022-11-20T06:33:46;19.60;;;10.07;;
32838;SDS011;19182;41.820;12.808;2022-11-20T06:36:14;16.25;;;8.40;;
32838;SDS011;19182;41.820;12.808;2022-11-20T06:38:42;15.52;;;9.07;;
32838;SDS011;19182;41.820;12.808;2022-11-20T06:41:10;17.13;;;9.30;;
32838;SDS011;19182;41.820;12.808;2022-11-20T06:43:38;11.88;;;8.02;;
32838;SDS011;19182;41.820;12.808;2022-11-20T06:46:03;17.75;;;8.85;;
32838;SDS011;19182;41.820;12.808;2022-11-20T06:48:31;14.27;;;8.05;;
32838;SDS011;19182;41.820;12.808;2022-11-20T06:51:00;14.05;;;7.57;;
32838;SDS011;19182;41.820;12.808;2022-11-20T06:53:28;15.93;;;7.80;;
32838;SDS011;19182;41.820;12.808;2022-11-20T06:55:55;13.27;;;7.32;;
32838;SDS011;19182;41.820;12.808;2022-11-20T06:58:22;16.52;;;7.50;;
32838;SDS011;19182;41.820;12.808;2022-11-20T07:00:48;15.63;;;8.38;;
32838;SDS011;19182;41.820;12.808;2022-11-20T07:03:14;11.02;;;8.65;;
32838;SDS011;19182;41.820;12.808;2022-11-20T07:05:39;12.68;;;8.13;;
32838;SDS011;19182;41.820;12.808;2022-11-20T07:08:06;12.00;;;7.97;;
32838;SDS011;19182;41.820;12.808;2022-11-20T07:10:32;13.98;;;7.93;;
32838;SDS011;19182;41.820;12.808;2022-11-20T07:12:58;13.02;;;7.75;;
32838;SDS011;19182;41.820;12.808;2022-11-20T07:15:24;13.18;;;7.22;;
32838;SDS011;19182;41.820;12.808;2022-11-20T07:17:52;10.38;;;7.25;;
32838;SDS011;19182;41.820;12.808;2022-11-20T07:20:17;11.55;;;7.38;;
32838;SDS011;19182;41.820;12.808;2022-11-20T07:22:43;12.77;;;6.82;;
32838;SDS011;19182;41.820;12.808;2022-11-20T07:25:09;11.25;;;6.88;;
32838;SDS011;19182;41.820;12.808;2022-11-20T07:27:38;12.68;;;6.30;;
32838;SDS011;19182;41.820;12.808;2022-11-20T07:30:05;9.05;;;6.45;;
32838;SDS011;19182;41.820;12.808;2022-11-20T07:32:31;8.95;;;6.40;;
32838;SDS011;19182;41.820;12.808;2022-11-20T07:34:57;13.38;;;7.30;;
32838;SDS011;19182;41.820;12.808;2022-11-20T07:37:23;14.38;;;7.97;;
32838;SDS011;19182;41.820;12.808;2022-11-20T07:39:49;8.48;;;6.05;;
32838;SDS011;19182;41.820;12.808;2022-11-20T07:42:14;7.70;;;5.00;;
32838;SDS011;19182;41.820;12.808;2022-11-20T07:44:41;7.65;;;4.85;;
32838;SDS011;19182;41.820;12.808;2022-11-20T07:47:07;6.53;;;4.07;;
32838;SDS011;19182;41.820;12.808;2022-11-20T07:49:33;6.68;;;4.13;;
32838;SDS011;19182;41.820;12.808;2022-11-20T07:51:59;4.90;;;3.55;;
32838;SDS011;19182;41.820;12.808;2022-11-20T07:54:25;6.72;;;3.40;;
32838;SDS011;19182;41.820;12.808;2022-11-20T07:56:51;3.92;;;3.22;;
32838;SDS011;19182;41.820;12.808;2022-11-20T07:59:16;6.40;;;4.22;;
32838;SDS011;19182;41.820;12.808;2022-11-20T08:01:42;5.50;;;4.25;;
32838;SDS011;19182;41.820;12.808;2022-11-20T08:04:08;7.65;;;4.68;;
32838;SDS011;19182;41.820;12.808;2022-11-20T08:06:34;7.97;;;4.88;;
32838;SDS011;19182;41.820;12.808;2022-11-20T08:09:01;8.40;;;5.15;;
32838;SDS011;19182;41.820;12.808;2022-11-20T08:11:27;8.38;;;4.82;;
32838;SDS011;19182;41.820;12.808;2022-11-20T08:14:11;6.82;;;4.90;;
32838;SDS011;19182;41.820;12.808;2022-11-20T08:16:42;8.02;;;4.70;;
32838;SDS011;19182;41.820;12.808;2022-11-20T08:19:09;5.28;;;3.92;;
32838;SDS011;19182;41.820;12.808;2022-11-20T08:21:35;6.93;;;4.70;;
32838;SDS011;19182;41.820;12.808;2022-11-20T08:24:01;7.93;;;4.10;;
32838;SDS011;19182;41.820;12.808;2022-11-20T08:26:27;4.50;;;3.60;;
32838;SDS011;19182;41.820;12.808;2022-11-20T08:28:54;7.63;;;4.05;;
32838;SDS011;19182;41.820;12.808;2022-11-20T08:31:21;8.50;;;4.00;;
32838;SDS011;19182;41.820;12.808;2022-11-20T08:33:48;7.13;;;2.92;;
32838;SDS011;19182;41.820;12.808;2022-11-20T08:36:14;7.40;;;3.17;;
32838;SDS011;19182;41.820;12.808;2022-11-20T08:38:40;8.10;;;3.92;;
32838;SDS011;19182;41.820;12.808;2022-11-20T08:41:06;7.90;;;4.40;;
32838;SDS011;19182;41.820;12.808;2022-11-20T08:43:56;5.45;;;3.70;;
32838;SDS011;19182;41.820;12.808;2022-11-20T08:46:27;6.95;;;3.42;;
32838;SDS011;19182;41.820;12.808;2022-11-20T08:48:58;4.05;;;3.33;;
32838;SDS011;19182;41.820;12.808;2022-11-20T08:51:28;3.42;;;2.55;;
32838;SDS011;19182;41.820;12.808;2022-11-20T08:53:53;6.30;;;4.33;;
32838;SDS011;19182;41.820;12.808;2022-11-20T08:56:22;10.57;;;5.03;;
32838;SDS011;19182;41.820;12.808;2022-11-20T08:58:49;4.70;;;4.28;;
32838;SDS011;19182;41.820;12.808;2022-11-20T09:01:18;4.43;;;3.92;;
32838;SDS011;19182;41.820;12.808;2022-11-20T09:03:45;5.60;;;3.75;;
32838;SDS011;19182;41.820;12.808;2022-11-20T09:06:10;7.45;;;4.07;;
32838;SDS011;19182;41.820;12.808;2022-11-20T09:08:36;7.15;;;3.90;;
32838;SDS011;19182;41.820;12.808;2022-11-20T09:11:03;6.78;;;3.97;;
32838;SDS011;19182;41.820;12.808;2022-11-20T09:13:30;8.52;;;3.80;;
32838;SDS011;19182;41.820;12.808;2022-11-20T09:15:59;8.77;;;3.53;;
32838;SDS011;19182;41.820;12.808;2022-11-20T09:18:32;3.47;;;2.47;;
32838;SDS011;19182;41.820;12.808;2022-11-20T09:21:01;5.65;;;2.10;;
32838;SDS011;19182;41.820;12.808;2022-11-20T09:23:32;4.32;;;1.73;;
32838;SDS011;19182;41.820;12.808;2022-11-20T09:26:10;4.78;;;1.13;;
32838;SDS011;19182;41.820;12.808;2022-11-20T09:28:38;5.00;;;1.38;;
32838;SDS011;19182;41.820;12.808;2022-11-20T09:31:06;3.25;;;1.00;;
32838;SDS011;19182;41.820;12.808;2022-11-20T09:33:48;4.93;;;1.60;;
32838;SDS011;19182;41.820;12.808;2022-11-20T09:36:15;4.38;;;1.10;;
32838;SDS011;19182;41.820;12.808;2022-11-20T09:38:43;2.80;;;1.48;;
32838;SDS011;19182;41.820;12.808;2022-11-20T09:41:19;2.83;;;1.23;;
32838;SDS011;19182;41.820;12.808;2022-11-20T09:44:19;3.42;;;1.45;;
32838;SDS011;19182;41.820;12.808;2022-11-20T09:47:46;5.15;;;1.10;;
32838;SDS011;19182;41.820;12.808;2022-11-20T09:50:35;1.42;;;0.90;;
32838;SDS011;19182;41.820;12.808;2022-11-20T09:53:10;4.10;;;1.33;;
32838;SDS011;19182;41.820;12.808;2022-11-20T09:56:12;3.50;;;2.57;;
32838;SDS011;19182;41.820;12.808;2022-11-20T09:58:42;6.40;;;2.40;;
32838;SDS011;19182;41.820;12.808;2022-11-20T10:01:16;5.95;;;3.72;;
32838;SDS011;19182;41.820;12.808;2022-11-20T10:04:25;5.30;;;3.60;;
32838;SDS011;19182;41.820;12.808;2022-11-20T10:06:47;3.10;;;2.42;;
32838;SDS011;19182;41.820;12.808;2022-11-20T10:09:40;3.00;;;2.63;;
32838;SDS011;19182;41.820;12.808;2022-11-20T10:12:17;4.15;;;2.60;;
32838;SDS011;19182;41.820;12.808;2022-11-20T10:26:06;3.90;;;1.88;;
32838;SDS011;19182;41.820;12.808;2022-11-20T10:29:09;4.88;;;1.92;;
32838;SDS011;19182;41.820;12.808;2022-11-20T10:31:41;4.20;;;2.20;;
32838;SDS011;19182;41.820;12.808;2022-11-20T10:34:19;7.30;;;1.90;;
32838;SDS011;19182;41.820;12.808;2022-11-20T10:36:49;3.05;;;1.95;;
32838;SDS011;19182;41.820;12.808;2022-11-20T10:39:39;5.55;;;2.55;;
32838;SDS011;19182;41.820;12.808;2022-11-20T10:42:11;6.38;;;3.28;;
32838;SDS011;19182;41.820;12.808;2022-11-20T10:44:43;8.75;;;3.47;;
32838;SDS011;19182;41.820;12.808;2022-11-20T10:47:27;7.78;;;3.35;;
32838;SDS011;19182;41.820;12.808;2022-11-20T10:49:56;52.78;;;26.25;;
32838;SDS011;19182;41.820;12.808;2022-11-20T10:55:39;39.78;;;20.27;;
32838;SDS011;19182;41.820;12.808;2022-11-20T10:58:17;44.38;;;26.02;;
32838;SDS011;19182;41.820;12.808;2022-11-20T11:01:05;10.05;;;5.72;;
32838;SDS011;19182;41.820;12.808;2022-11-20T11:03:38;4.82;;;4.32;;
32838;SDS011;19182;41.820;12.808;2022-11-20T11:08:53;6.80;;;5.20;;
32838;SDS011;19182;41.820;12.808;2022-11-20T11:11:23;5.88;;;5.28;;
32838;SDS011;19182;41.820;12.808;2022-11-20T11:14:06;10.90;;;7.55;;
32838;SDS011;19182;41.820;12.808;2022-11-20T11:16:33;8.82;;;7.93;;
32838;SDS011;19182;41.820;12.808;2022-11-20T11:19:06;6.50;;;5.00;;
32838;SDS011;19182;41.820;12.808;2022-11-20T11:21:37;5.82;;;4.32;;
32838;SDS011;19182;41.820;12.808;2022-11-20T11:24:14;3.33;;;2.97;;
32838;SDS011;19182;41.820;12.808;2022-11-20T11:26:57;5.80;;;4.70;;
32838;SDS011;19182;41.820;12.808;2022-11-20T11:29:36;5.78;;;3.75;;
32838;SDS011;19182;41.820;12.808;2022-11-20T11:32:06;6.50;;;5.35;;
32838;SDS011;19182;41.820;12.808;2022-11-20T11:34:42;4.53;;;4.13;;
32838;SDS011;19182;41.820;12.808;2022-11-20T11:37:17;3.60;;;2.92;;
32838;SDS011;19182;41.820;12.808;2022-11-20T11:39:49;4.00;;;2.70;;
32838;SDS011;19182;41.820;12.808;2022-11-20T11:42:17;4.15;;;3.20;;
32838;SDS011;19182;41.820;12.808;2022-11-20T11:44:45;4.25;;;3.10;;
32838;SDS011;19182;41.820;12.808;2022-11-20T11:55:42;5.85;;;3.83;;
32838;SDS011;19182;41.820;12.808;2022-11-20T12:04:04;3.03;;;2.35;;
32838;SDS011;19182;41.820;12.808;2022-11-20T12:06:36;5.53;;;2.40;;
32838;SDS011;19182;41.820;12.808;2022-11-20T12:09:08;6.00;;;2.83;;
32838;SDS011;19182;41.820;12.808;2022-11-20T12:11:46;4.30;;;3.20;;
32838;SDS011;19182;41.820;12.808;2022-11-20T12:17:00;5.53;;;2.78;;
32838;SDS011;19182;41.820;12.808;2022-11-20T12:19:26;4.07;;;3.67;;
32838;SDS011;19182;41.820;12.808;2022-11-20T13:04:31;5.95;;;3.65;;
32838;SDS011;19182;41.820;12.808;2022-11-20T13:07:23;4.18;;;2.35;;
32838;SDS011;19182;41.820;12.808;2022-11-20T13:09:53;3.50;;;2.88;;
32838;SDS011;19182;41.820;12.808;2022-11-20T13:17:47;2.58;;;2.38;;
32838;SDS011;19182;41.820;12.808;2022-11-20T13:20:41;3.78;;;2.42;;
32838;SDS011;19182;41.820;12.808;2022-11-20T13:23:08;3.72;;;2.67;;
32838;SDS011;19182;41.820;12.808;2022-11-20T13:25:38;4.35;;;3.40;;
32838;SDS011;19182;41.820;12.808;2022-11-20T13:28:25;3.83;;;2.78;;
32838;SDS011;19182;41.820;12.808;2022-11-20T13:30:55;3.83;;;3.10;;
32838;SDS011;19182;41.820;12.808;2022-11-20T13:35:59;4.88;;;3.25;;
32838;SDS011;19182;41.820;12.808;2022-11-20T13:38:40;3.88;;;2.20;;
32838;SDS011;19182;41.820;12.808;2022-11-20T13:41:22;2.80;;;2.20;;
32838;SDS011;19182;41.820;12.808;2022-11-20T13:44:13;11.05;;;6.95;;
32838;SDS011;19182;41.820;12.808;2022-11-20T13:46:49;6.65;;;3.85;;
32838;SDS011;19182;41.820;12.808;2022-11-20T13:49:37;5.15;;;3.92;;
32838;SDS011;19182;41.820;12.808;2022-11-20T14:01:00;6.53;;;3.17;;
32838;SDS011;19182;41.820;12.808;2022-11-20T14:03:39;2.67;;;1.50;;
32838;SDS011;19182;41.820;12.808;2022-11-20T14:06:11;6.40;;;4.90;;
32838;SDS011;19182;41.820;12.808;2022-11-20T14:08:57;4.90;;;3.78;;
32838;SDS011;19182;41.820;12.808;2022-11-20T14:11:25;6.38;;;3.38;;
32838;SDS011;19182;41.820;12.808;2022-11-20T14:16:42;1.83;;;1.40;;
32838;SDS011;19182;41.820;12.808;2022-11-20T14:25:21;7.35;;;4.45;;
32838;SDS011;19182;41.820;12.808;2022-11-20T14:28:01;6.05;;;4.72;;
32838;SDS011;19182;41.820;12.808;2022-11-20T14:30:41;9.60;;;4.68;;
32838;SDS011;19182;41.820;12.808;2022-11-20T14:33:12;5.55;;;4.03;;
32838;SDS011;19182;41.820;12.808;2022-11-20T14:35:50;7.93;;;4.93;;
32838;SDS011;19182;41.820;12.808;2022-11-20T14:38:36;7.03;;;4.97;;
32838;SDS011;19182;41.820;12.808;2022-11-20T14:41:06;4.78;;;3.75;;
32838;SDS011;19182;41.820;12.808;2022-11-20T14:43:45;4.78;;;3.20;;
32838;SDS011;19182;41.820;12.808;2022-11-20T14:46:12;3.50;;;2.15;;
32838;SDS011;19182;41.820;12.808;2022-11-20T14:51:10;4.53;;;1.92;;
32838;SDS011;19182;41.820;12.808;2022-11-20T14:53:47;6.18;;;1.92;;
32838;SDS011;19182;41.820;12.808;2022-11-20T14:56:13;2.50;;;2.22;;
32838;SDS011;19182;41.820;12.808;2022-11-20T14:59:09;3.53;;;2.90;;
32838;SDS011;19182;41.820;12.808;2022-11-20T15:01:35;4.43;;;2.55;;
32838;SDS011;19182;41.820;12.808;2022-11-20T15:04:06;3.70;;;2.55;;
32838;SDS011;19182;41.820;12.808;2022-11-20T15:06:34;3.85;;;2.58;;
32838;SDS011;19182;41.820;12.808;2022-11-20T15:09:02;5.65;;;4.07;;
32838;SDS011;19182;41.820;12.808;2022-11-20T15:14:01;4.75;;;3.53;;
32838;SDS011;19182;41.820;12.808;2022-11-20T15:16:29;5.13;;;3.35;;
32838;SDS011;19182;41.820;12.808;2022-11-20T15:18:57;6.45;;;3.80;;
32838;SDS011;19182;41.820;12.808;2022-11-20T15:21:24;6.20;;;4.27;;
32838;SDS011;19182;41.820;12.808;2022-11-20T15:23:54;3.90;;;2.05;;
32838;SDS011;19182;41.820;12.808;2022-11-20T15:26:22;4.10;;;2.78;;
32838;SDS011;19182;41.820;12.808;2022-11-20T15:28:50;4.13;;;2.40;;
32838;SDS011;19182;41.820;12.808;2022-11-20T15:31:18;5.47;;;2.47;;
32838;SDS011;19182;41.820;12.808;2022-11-20T15:33:45;4.97;;;3.28;;
32838;SDS011;19182;41.820;12.808;2022-11-20T15:36:11;7.38;;;3.00;;
32838;SDS011;19182;41.820;12.808;2022-11-20T15:38:39;4.50;;;2.90;;
32838;SDS011;19182;41.820;12.808;2022-11-20T15:41:05;2.88;;;2.40;;
32838;SDS011;19182;41.820;12.808;2022-11-20T15:43:32;3.10;;;2.70;;
32838;SDS011;19182;41.820;12.808;2022-11-20T15:46:02;2.63;;;2.38;;
32838;SDS011;19182;41.820;12.808;2022-11-20T15:48:39;4.75;;;3.33;;
32838;SDS011;19182;41.820;12.808;2022-11-20T15:53:49;3.88;;;3.25;;
32838;SDS011;19182;41.820;12.808;2022-11-20T15:56:16;4.20;;;3.47;;
32838;SDS011;19182;41.820;12.808;2022-11-20T15:58:42;4.90;;;3.58;;
32838;SDS011;19182;41.820;12.808;2022-11-20T16:01:12;6.28;;;4.43;;
32838;SDS011;19182;41.820;12.808;2022-11-20T16:03:47;6.65;;;3.97;;
32838;SDS011;19182;41.820;12.808;2022-11-20T16:06:13;5.50;;;4.38;;
32838;SDS011;19182;41.820;12.808;2022-11-20T16:09:04;4.20;;;3.28;;
32838;SDS011;19182;41.820;12.808;2022-11-20T16:11:30;6.13;;;4.53;;
32838;SDS011;19182;41.820;12.808;2022-11-20T16:13:57;6.43;;;4.75;;
32838;SDS011;19182;41.820;12.808;2022-11-20T16:16:43;8.93;;;5.53;;
32838;SDS011;19182;41.820;12.808;2022-11-20T16:19:10;9.20;;;5.72;;
32838;SDS011;19182;41.820;12.808;2022-11-20T16:21:43;7.25;;;5.18;;
32838;SDS011;19182;41.820;12.808;2022-11-20T16:24:10;13.43;;;8.25;;
32838;SDS011;19182;41.820;12.808;2022-11-20T16:26:38;9.48;;;7.30;;
32838;SDS011;19182;41.820;12.808;2022-11-20T16:29:04;10.07;;;7.32;;
32838;SDS011;19182;41.820;12.808;2022-11-20T16:31:31;9.15;;;6.38;;
32838;SDS011;19182;41.820;12.808;2022-11-20T16:33:59;5.97;;;4.65;;
32838;SDS011;19182;41.820;12.808;2022-11-20T16:36:27;8.85;;;4.00;;
32838;SDS011;19182;41.820;12.808;2022-11-20T16:39:31;11.63;;;5.95;;
32838;SDS011;19182;41.820;12.808;2022-11-20T16:41:57;14.82;;;6.32;;